Data for 03/20/2016

Time Sea-Level Adjusted Pressure Absolute Pressure Temperature Relative Humidity Dew Point   
(mb) (inHg) (mb) (inHg) (C) (F) (%) (C) (F)
00:05 1022 30.18 851 25.13 0.3 32.5 38 -12.3 9.9
00:10 1022 30.18 851 25.13 0.6 33 38 -12.3 9.9
00:15 1022 30.18 851 25.13 0.7 33.2 39 -11.8 10.8
00:20 1022 30.18 851 25.13 0.3 32.5 40 -11.8 10.7
00:25 1022 30.18 851 25.13 0.6 33.2 39 -11.9 10.5
00:30 1022 30.18 851 25.13 0.8 33.5 38 -12.1 10.2
00:35 1022 30.18 851 25.13 0.6 33.1 39 -11.9 10.6
00:40 1022 30.18 851 25.13 0.4 32.6 39 -12.2 10.1
00:45 1022 30.18 851 25.13 0.3 32.6 39 -12.1 10.2
00:50 1022 30.18 851 25.13 0.2 32.4 39 -12.1 10.2
00:55 1022 30.18 851 25.13 0.2 32.3 40 -11.9 10.7
01:00 1022 30.18 851 25.13 -0.1 31.9 42 -11.6 11.1
01:05 1022 30.18 851 25.13 -0.2 31.7 41 -11.8 10.8
01:10 1022 30.18 851 25.13 -0.1 31.8 42 -11.7 10.9
01:15 1022 30.18 851 25.13 -0.3 31.4 43 -11.4 11.5
01:20 1022 30.18 851 25.13 -0.6 30.9 43 -11.8 10.7
01:25 1022 30.18 851 25.13 -0.3 31.4 40 -12.3 9.9
01:30 1022 30.18 851 25.13 0 32 39 -12.3 9.9
01:35 1022 30.18 851 25.13 -0 31.9 39 -12.4 9.7
01:40 1022 30.18 851 25.13 -0 32 39 -12.5 9.6
01:45 1022 30.18 851 25.13 -0.1 31.8 41 -11.8 10.7
01:50 1022 30.18 851 25.13 -0.5 31.1 43 -11.7 10.9
01:55 1022 30.18 851 25.13 -0.7 30.8 44 -11.6 11.1
02:00 1022 30.18 851 25.13 -0.8 30.5 44 -11.6 11.1
02:05 1022 30.18 851 25.13 -0.9 30.3 44 -11.7 10.9
02:10 1022 30.18 851 25.13 -0.8 30.6 42 -12.1 10.3
02:15 1022 30.18 851 25.13 -0.4 31.3 40 -12.3 9.9
02:20 1022 30.18 851 25.13 -0.4 31.2 42 -11.8 10.7
02:25 1022 30.18 851 25.13 -0.7 30.7 42 -12.2 10
02:30 1022 30.18 851 25.13 -0.5 31.2 40 -12.4 9.6
02:35 1022 30.18 851 25.13 -0.3 31.4 40 -12.4 9.8
02:40 1021 30.15 851 25.13 -0.3 31.4 39 -12.6 9.4
02:45 1021 30.15 851 25.13 -0.4 31.3 41 -12.2 10
02:50 1021 30.15 851 25.13 -0.5 31.1 41 -12.2 10.1
02:55 1021 30.15 851 25.13 -0.6 30.9 42 -12 10.4
03:00 1021 30.15 850 25.1 -0.6 31 43 -11.7 11
03:05 1021 30.15 850 25.1 -0.7 30.7 42 -12 10.3
03:10 1021 30.15 850 25.1 -0.7 30.7 42 -12.2 10.1
03:15 1021 30.15 850 25.1 -0.7 30.8 42 -12.1 10.2
03:20 1021 30.15 850 25.1 -0.7 30.7 43 -11.9 10.6
03:25 1021 30.15 850 25.1 -0.9 30.3 43 -12 10.4
03:30 1021 30.15 850 25.1 -0.9 30.4 42 -12.2 10
03:35 1021 30.15 850 25.1 -0.8 30.5 41 -12.6 9.3
03:40 1021 30.15 850 25.1 -0.6 31 39 -13 8.6
03:45 1021 30.15 850 25.1 -0.1 31.8 36 -13.5 7.7
03:50 1021 30.15 850 25.1 0.3 32.5 35 -13.5 7.7
03:55 1021 30.15 850 25.1 0.2 32.4 36 -13.3 8
04:00 1021 30.15 850 25.1 0.2 32.4 36 -13.3 8
04:05 1021 30.15 850 25.1 0.2 32.3 36 -13.2 8.2
04:10 1021 30.15 850 25.1 -0 31.9 36 -13.4 7.9
04:15 1021 30.15 850 25.1 -0.3 31.5 40 -12.3 9.8
04:20 1021 30.15 850 25.1 -0.9 30.4 43 -11.9 10.6
04:25 1021 30.15 850 25.1 -1.2 29.8 45 -11.7 11
04:30 1021 30.15 850 25.1 -1.7 28.9 47 -11.5 11.3
04:35 1021 30.15 850 25.1 -1.5 29.3 46 -11.7 10.9
04:40 1021 30.15 850 25.1 -0.8 30.6 41 -12.6 9.4
04:45 1021 30.15 850 25.1 0 32.1 37 -12.9 8.8
04:50 1021 30.15 850 25.1 0.4 32.6 36 -13.1 8.4
04:55 1021 30.15 850 25.1 0.5 32.8 34 -13.7 7.3
05:00 1021 30.15 850 25.1 0.3 32.6 37 -12.8 9
05:05 1021 30.15 850 25.1 -0 32 38 -12.8 8.9
05:10 1021 30.15 850 25.1 -0.3 31.5 38 -12.9 8.8
05:15 1021 30.15 850 25.1 -0.5 31.1 39 -12.9 8.8
05:20 1021 30.15 850 25.1 -0.3 31.4 38 -13.2 8.3
05:25 1021 30.15 850 25.1 -0.1 31.8 36 -13.6 7.6
05:30 1021 30.15 850 25.1 0.2 32.3 34 -13.8 7.1
05:35 1021 30.15 850 25.1 0.3 32.5 35 -13.4 7.8
05:40 1021 30.15 850 25.1 0 32.1 36 -13.3 8
05:45 1021 30.15 850 25.1 -0.2 31.6 43 -11.4 11.5
05:50 1021 30.15 850 25.1 -0.4 31.2 42 -11.8 10.8
05:55 1021 30.15 850 25.1 -0.4 31.3 43 -11.6 11.2
06:00 1021 30.15 850 25.1 -0.9 30.3 45 -11.5 11.2
06:05 1021 30.15 850 25.1 -1.4 29.5 47 -11.2 11.9
06:10 1021 30.15 850 25.1 -1.5 29.4 43 -12.6 9.4
06:15 1021 30.15 850 25.1 -0.2 31.6 36 -13.6 7.5
06:20 1021 30.15 850 25.1 0.1 32.1 37 -13.1 8.4
06:25 1021 30.15 850 25.1 -0.2 31.7 37 -13.2 8.2
06:30 1021 30.15 850 25.1 -0.3 31.5 38 -12.9 8.7
06:35 1021 30.15 850 25.1 -0.6 31 39 -12.7 9.1
06:40 1021 30.15 850 25.1 -0.7 30.7 40 -12.7 9.1
06:45 1021 30.15 850 25.1 -0.7 30.7 40 -12.6 9.2
06:50 1021 30.15 850 25.1 -0.5 31.1 38 -13.1 8.4
06:55 1021 30.15 850 25.1 0.3 32.5 37 -12.9 8.8
07:00 1021 30.15 850 25.1 0.6 33.1 35 -13.3 8.1
07:05 1021 30.15 850 25.1 0.5 32.9 36 -13 8.6
07:10 1021 30.15 850 25.1 0.5 32.9 35 -13.4 7.9
07:15 1021 30.15 850 25.1 0.4 32.8 35 -13.2 8.3
07:20 1021 30.15 850 25.1 0.4 32.7 36 -13.1 8.4
07:25 1021 30.15 850 25.1 0.5 32.9 36 -12.9 8.9
07:30 1021 30.15 850 25.1 0.7 33.2 39 -11.7 10.9
07:35 1021 30.15 850 25.1 0.5 32.9 40 -11.7 10.9
07:40 1021 30.15 850 25.1 0.5 32.8 39 -11.9 10.6
07:45 1021 30.15 850 25.1 0.6 33 38 -12.3 9.8
07:50 1021 30.15 850 25.1 1.1 34 36 -12.2 10
07:55 1021 30.15 850 25.1 2 35.5 34 -12.2 10.1
08:00 1021 30.15 850 25.1 2.6 36.7 33 -12.1 10.1
08:05 1021 30.15 850 25.1 3.2 37.7 32 -12.1 10.2
08:10 1021 30.15 850 25.1 3.5 38.3 30 -12.3 9.8
08:15 1021 30.15 850 25.1 4 39.2 31 -11.9 10.6
08:20 1021 30.15 850 25.1 4.2 39.5 29 -12.4 9.6
08:25 1021 30.15 850 25.1 3.9 39 30 -12 10.4
08:30 1021 30.15 850 25.1 4.4 40 29 -12.1 10.2
08:35 1020 30.12 850 25.1 4.3 39.8 29 -12.2 10.1
08:40 1021 30.15 850 25.1 4.2 39.6 29 -12.2 10.1
08:45 1020 30.12 850 25.1 4.8 40.6 27 -12.6 9.4
08:50 1020 30.12 850 25.1 5.1 41.2 27 -12.6 9.4
08:55 1020 30.12 850 25.1 5.5 42 26 -12.7 9.2
09:00 1020 30.12 850 25.1 5.9 42.6 26 -12.4 9.7
09:05 1020 30.12 850 25.1 6 42.7 25 -12.7 9.2
09:10 1020 30.12 850 25.1 6.3 43.3 24 -12.8 8.9
09:15 1020 30.12 850 25.1 6.4 43.6 24 -12.9 8.8
09:20 1020 30.12 850 25.1 6.7 44.1 23 -13 8.7
09:25 1020 30.12 850 25.1 6.5 43.8 24 -12.6 9.3
09:30 1020 30.12 850 25.1 7 44.6 23 -12.9 8.7
09:35 1020 30.12 850 25.1 7.3 45.1 23 -12.7 9.1
09:40 1020 30.12 849 25.07 7.7 45.9 22 -12.9 8.8
09:45 1020 30.12 849 25.07 7.9 46.3 20 -13.4 7.8
09:50 1020 30.12 849 25.07 8.1 46.5 19 -14 6.8
09:55 1020 30.12 849 25.07 8 46.4 19 -14 6.8
10:00 1020 30.12 849 25.07 8.7 47.7 19 -13.8 7.2
10:05 1020 30.12 849 25.07 9.2 48.6 19 -13.4 7.9
10:10 1020 30.12 849 25.07 9.3 48.7 19 -13.3 8.1
10:15 1020 30.12 849 25.07 9.3 48.8 18 -13.7 7.3
10:20 1020 30.12 849 25.07 9.4 48.9 19 -13.4 7.9
10:25 1020 30.12 849 25.07 9.6 49.2 19 -12.9 8.8
10:30 1020 30.12 849 25.07 9.2 48.5 19 -13.2 8.2
10:35 1020 30.12 849 25.07 9.5 49.2 19 -12.9 8.8
10:40 1020 30.12 849 25.07 9.3 48.7 19 -13.3 8.1
10:45 1020 30.12 849 25.07 10 49.9 19 -12.8 8.9
10:50 1020 30.12 849 25.07 9.7 49.4 20 -12.2 10.1
10:55 1020 30.12 849 25.07 9.7 49.4 20 -12.5 9.5
11:00 1020 30.12 849 25.07 10.3 50.5 19 -12.1 10.2
11:05 1019 30.09 849 25.07 10.9 51.6 18 -12.3 9.8
11:10 1019 30.09 849 25.07 10.8 51.5 19 -12 10.5
11:15 1019 30.09 849 25.07 10.9 51.5 19 -12.1 10.2
11:20 1019 30.09 848 25.04 11.6 52.8 18 -12.1 10.3
11:25 1019 30.09 848 25.04 11.6 52.8 18 -12 10.4
11:30 1019 30.09 848 25.04 11.4 52.5 19 -11.7 11
11:35 1019 30.09 848 25.04 11 51.8 20 -11.4 11.5
11:40 1019 30.09 848 25.04 11.8 53.3 17 -12.3 9.9
11:45 1019 30.09 848 25.04 12.1 53.8 17 -11.9 10.6
11:50 1019 30.09 848 25.04 12.3 54.2 18 -11.6 11.2
11:55 1019 30.09 848 25.04 12.4 54.2 18 -11.2 11.9
12:00 1019 30.09 848 25.04 12.7 54.8 17 -11.7 11
12:05 1019 30.09 848 25.04 13.4 56.1 17 -11.4 11.5
12:10 1018 30.06 848 25.04 13.8 56.9 16 -11.7 11
12:15 1018 30.06 848 25.04 14.5 58 15 -11.5 11.3
12:20 1018 30.06 847 25.01 14.4 58 16 -11.3 11.6
12:25 1018 30.06 847 25.01 13.6 56.5 17 -10.7 12.7
12:30 1018 30.06 847 25.01 13.9 57 15 -12.1 10.3
12:35 1018 30.06 847 25.01 15 59 15 -11.6 11.1
12:40 1018 30.06 847 25.01 15.6 60.1 15 -10.9 12.3
12:45 1018 30.06 847 25.01 16 60.7 15 -10.9 12.3
12:50 1018 30.06 847 25.01 15.7 60.3 14 -11.4 11.5
12:55 1018 30.06 847 25.01 16 60.9 15 -10.9 12.4
13:00 1018 30.06 847 25.01 16.2 61.2 14 -11.2 11.8
13:05 1018 30.06 847 25.01 16.4 61.5 15 -10.5 13.2
13:10 1018 30.06 847 25.01 16.5 61.7 15 -10.6 12.9
13:15 1017 30.03 847 25.01 15.6 60 16 -9.9 14.3
13:20 1017 30.03 847 25.01 15.9 60.6 15 -10.9 12.3
13:25 1017 30.03 847 25.01 15.7 60.3 15 -10.5 13.1
13:30 1017 30.03 846 24.98 15 59.1 17 -9.9 14.2
13:35 1017 30.03 846 24.98 15.5 59.9 15 -10.7 12.8
13:40 1017 30.03 846 24.98 16 60.7 15 -10.2 13.6
13:45 1017 30.03 846 24.98 15.9 60.7 15 -10.6 12.9
13:50 1017 30.03 846 24.98 16.1 61.1 16 -9.7 14.5
13:55 1017 30.03 846 24.98 16 60.8 15 -10.4 13.3
14:00 1017 30.03 846 24.98 17.1 62.8 15 -10.1 13.9
14:05 1017 30.03 846 24.98 17.4 63.3 14 -9.9 14.2
14:10 1017 30.03 846 24.98 17.7 63.8 14 -10 14
14:15 1016 30 846 24.98 17.1 62.7 14 -10.2 13.7
14:20 1016 30 846 24.98 17 62.6 15 -10 14
14:25 1016 30 845 24.95 18 64.5 14 -9.4 15.1
14:30 1016 30 845 24.95 18.6 65.4 13 -10 14.1
14:35 1016 30 845 24.95 18.4 65.1 14 -10 14
14:40 1016 30 845 24.95 18 64.3 14 -9.9 14.2
14:45 1016 30 845 24.95 17.8 64 14 -10.1 13.8
14:50 1016 30 845 24.95 18.2 64.7 13 -10.3 13.5
14:55 1016 30 845 24.95 18.3 65 13 -10.1 13.7
15:00 1016 30 845 24.95 18.2 64.8 14 -10.1 13.9
15:05 1015 29.97 845 24.95 18.4 65.2 13 -10 14
15:10 1015 29.97 845 24.95 18.6 65.5 13 -10.1 13.8
15:15 1015 29.97 845 24.95 18.8 65.9 13 -10.1 13.8
15:20 1015 29.97 845 24.95 18.3 65 14 -9.1 15.5
15:25 1015 29.97 845 24.95 16.8 62.3 14 -10.6 12.9
15:30 1015 29.97 844 24.92 17.3 63.2 14 -10.2 13.6
15:35 1015 29.97 844 24.92 17.9 64.2 14 -10.2 13.6
15:40 1015 29.97 844 24.92 18.1 64.5 13 -10.4 13.2
15:45 1015 29.97 844 24.92 18.5 65.2 13 -10.7 12.8
15:50 1015 29.97 844 24.92 18.3 65 13 -10.8 12.5
15:55 1015 29.97 844 24.92 18.7 65.6 13 -10.1 13.8
16:00 1015 29.97 844 24.92 18.8 65.9 13 -10 13.9
16:05 1015 29.97 844 24.92 18.8 65.8 13 -10.5 13.2
16:10 1015 29.97 844 24.92 18.7 65.6 13 -10.2 13.7
16:15 1015 29.97 844 24.92 18.8 65.8 13 -10.4 13.3
16:20 1015 29.97 844 24.92 17.7 63.9 13 -10.8 12.6
16:25 1015 29.97 844 24.92 17.7 63.8 13 -10.7 12.7
16:30 1015 29.97 844 24.92 18.1 64.5 13 -10.8 12.6
16:35 1015 29.97 844 24.92 18.5 65.2 13 -10.8 12.5
16:40 1015 29.97 844 24.92 17.9 64.3 13 -11 12.2
16:45 1015 29.97 844 24.92 17.7 63.8 13 -11.3 11.6
16:50 1015 29.97 844 24.92 17.2 62.9 13 -11.1 12
16:55 1015 29.97 844 24.92 17 62.6 13 -11.2 11.8
17:00 1015 29.97 844 24.92 17.1 62.8 13 -11.3 11.7
17:05 1015 29.97 844 24.92 17.4 63.3 13 -11.1 12
17:10 1014 29.94 844 24.92 17.2 63 14 -10.2 13.6
17:15 1014 29.94 844 24.92 16.9 62.5 13 -11.2 11.8
17:20 1014 29.94 844 24.92 16.7 62.1 14 -11.3 11.6
17:25 1014 29.94 844 24.92 16.8 62.2 14 -11.1 12
17:30 1014 29.94 844 24.92 16.9 62.5 14 -10.9 12.4
17:35 1014 29.94 843 24.89 17.1 62.8 13 -11.2 11.8
17:40 1014 29.94 843 24.89 17.4 63.3 14 -10.7 12.8
17:45 1014 29.94 844 24.92 17.1 62.7 14 -10.9 12.3
17:50 1014 29.94 844 24.92 16.7 62 15 -10.3 13.4
17:55 1014 29.94 844 24.92 16.1 61 18 -8.2 17.3
18:00 1014 29.94 843 24.89 15.2 59.3 22 -6.6 20.1
18:05 1014 29.94 843 24.89 14.4 57.9 22 -6.7 19.9
18:10 1014 29.94 843 24.89 14.1 57.3 23 -6.8 19.8
18:15 1014 29.94 843 24.89 13.7 56.6 26 -5.5 22
18:20 1014 29.94 843 24.89 13 55.3 27 -5.4 22.3
18:25 1014 29.94 843 24.89 12.7 54.8 27 -6 21.1
18:30 1014 29.94 843 24.89 12.3 54.2 28 -5.6 22
18:35 1014 29.94 843 24.89 12.1 53.7 28 -6 21.2
18:40 1014 29.94 843 24.89 11.8 53.3 28 -6.2 20.8
18:45 1014 29.94 843 24.89 11.6 52.8 28 -6.5 20.3
18:50 1014 29.94 843 24.89 11.5 52.6 26 -7.3 18.8
18:55 1014 29.94 843 24.89 11.3 52.3 27 -6.9 19.7
19:00 1014 29.94 843 24.89 10.9 51.6 28 -7 19.4
19:05 1014 29.94 843 24.89 10.5 50.8 28 -7.3 18.8
19:10 1014 29.94 843 24.89 10.3 50.5 25 -8.7 16.4
19:15 1014 29.94 843 24.89 10.6 51.2 26 -8.3 17.1
19:20 1014 29.94 843 24.89 10.7 51.2 27 -7.6 18.3
19:25 1014 29.94 843 24.89 10.2 50.4 30 -6.4 20.5
19:30 1014 29.94 843 24.89 9.3 48.8 29 -7.6 18.2
19:35 1014 29.94 843 24.89 9.1 48.4 27 -8.8 16.1
19:40 1014 29.94 843 24.89 9.8 49.6 27 -8.3 17.1
19:45 1014 29.94 843 24.89 9.6 49.2 28 -7.8 17.9
19:50 1014 29.94 843 24.89 9.2 48.5 27 -8.9 15.9
19:55 1014 29.94 843 24.89 10 50.1 24 -9.7 14.6
20:00 1014 29.94 843 24.89 10.5 50.8 24 -9.1 15.6
20:05 1014 29.94 843 24.89 10.3 50.5 24 -9.3 15.3
20:10 1014 29.94 843 24.89 10.1 50.2 23 -9.9 14.1
20:15 1014 29.94 843 24.89 10.4 50.7 22 -10.2 13.7
20:20 1014 29.94 843 24.89 10.3 50.6 25 -9.1 15.6
20:25 1014 29.94 843 24.89 9.9 49.9 25 -9 15.8
20:30 1014 29.94 843 24.89 9.6 49.4 27 -8.5 16.7
20:35 1014 29.94 843 24.89 9.6 49.2 26 -8.8 16.2
20:40 1014 29.94 843 24.89 9.6 49.3 24 -9.8 14.4
20:45 1014 29.94 843 24.89 9.9 49.7 24 -9.6 14.6
20:50 1014 29.94 843 24.89 9.8 49.7 25 -9.5 15
20:55 1014 29.94 843 24.89 9.8 49.7 23 -10.1 13.8
21:00 1014 29.94 843 24.89 10 49.9 24 -9.9 14.1
21:05 1013 29.91 843 24.89 9.9 49.9 24 -9.8 14.4
21:10 1013 29.91 843 24.89 9.4 49 26 -9.4 15.1
21:15 1013 29.91 843 24.89 9.4 49 24 -10.3 13.4
21:20 1013 29.91 843 24.89 9.4 49 27 -8.9 16
21:25 1013 29.91 842 24.86 9 48.1 28 -8.8 16.2
21:30 1013 29.91 842 24.86 8.6 47.5 26 -9.7 14.6
21:35 1013 29.91 842 24.86 8.9 48 26 -9.5 14.8
21:40 1013 29.91 842 24.86 8.7 47.6 27 -9.1 15.6
21:45 1013 29.91 842 24.86 8.5 47.4 29 -8.7 16.4
21:50 1013 29.91 842 24.86 8.2 46.8 29 -8.7 16.3
21:55 1013 29.91 842 24.86 8.3 46.9 27 -9.7 14.5
22:00 1013 29.91 842 24.86 9 48.2 27 -9.2 15.4
22:05 1013 29.91 842 24.86 8.8 47.9 28 -8.9 16.1
22:10 1013 29.91 842 24.86 8.3 47 28 -9.2 15.4
22:15 1013 29.91 842 24.86 8.5 47.4 27 -9.5 14.9
22:20 1013 29.91 842 24.86 8.7 47.6 27 -9.1 15.6
22:25 1013 29.91 842 24.86 8.7 47.6 27 -9.4 15.1
22:30 1013 29.91 842 24.86 8.7 47.7 28 -9 15.8
22:35 1013 29.91 842 24.86 8.4 47.2 29 -8.7 16.3
22:40 1013 29.91 842 24.86 8.5 47.4 27 -9.3 15.2
22:45 1013 29.91 842 24.86 8.4 47.2 29 -8.6 16.5
22:50 1013 29.91 842 24.86 8.2 46.7 29 -8.9 16
22:55 1013 29.91 842 24.86 8.4 47.2 29 -8.6 16.5
23:00 1013 29.91 842 24.86 8.4 47.1 27 -9.4 15.1
23:05 1013 29.91 842 24.86 8.2 46.7 30 -8.3 17.1
23:10 1013 29.91 842 24.86 7.8 46 30 -8.6 16.6
23:15 1013 29.91 842 24.86 7.4 45.3 31 -8.7 16.3
23:20 1013 29.91 842 24.86 7.3 45.2 31 -8.9 16.1
23:25 1013 29.91 842 24.86 7.4 45.3 30 -8.9 16
23:30 1013 29.91 842 24.86 7.3 45.2 31 -8.8 16.1
23:35 1013 29.91 842 24.86 7.4 45.2 31 -8.8 16.2
23:40 1013 29.91 842 24.86 7.5 45.4 30 -9.1 15.7
23:45 1013 29.91 842 24.86 7.5 45.6 30 -9 15.8
23:50 1013 29.91 842 24.86 7.6 45.7 30 -8.7 16.4
23:55 1013 29.91 842 24.86 7.7 45.8 30 -8.9 16.1
24:00 1013 29.91 842 24.86 8.2 46.8 28 -9.3 15.2